RJTA(METAR)
03/23 15:00
METAR RJTA 230600Z VRB03KT 9999 FEW030 SCT060 BKN150 14/M02 Q1014
RMK 1CU030 3SC060 5AC150 A2994=
戻る
トップページへ戻る
IMOC Co,.Ltd.